sensor_id;sensor_type;location;lat;lon;timestamp;P1;durP1;ratioP1;P2;durP2;ratioP2
41219;SDS011;26951;47.338;9.196;2023-12-29T00:00:05;4.85;;;2.63;;
41219;SDS011;26951;47.338;9.196;2023-12-29T00:02:50;3.95;;;2.88;;
41219;SDS011;26951;47.338;9.196;2023-12-29T00:05:35;6.47;;;3.13;;
41219;SDS011;26951;47.338;9.196;2023-12-29T00:08:20;3.05;;;2.45;;
41219;SDS011;26951;47.338;9.196;2023-12-29T00:11:03;4.05;;;2.95;;
41219;SDS011;26951;47.338;9.196;2023-12-29T00:13:48;3.40;;;2.47;;
41219;SDS011;26951;47.338;9.196;2023-12-29T00:16:32;3.65;;;3.05;;
41219;SDS011;26951;47.338;9.196;2023-12-29T00:19:16;4.75;;;3.00;;
41219;SDS011;26951;47.338;9.196;2023-12-29T00:22:00;3.20;;;2.85;;
41219;SDS011;26951;47.338;9.196;2023-12-29T00:24:46;3.00;;;2.70;;
41219;SDS011;26951;47.338;9.196;2023-12-29T00:27:30;2.92;;;2.50;;
41219;SDS011;26951;47.338;9.196;2023-12-29T00:30:14;3.60;;;2.60;;
41219;SDS011;26951;47.338;9.196;2023-12-29T00:32:59;3.22;;;2.80;;
41219;SDS011;26951;47.338;9.196;2023-12-29T00:35:43;3.22;;;2.67;;
41219;SDS011;26951;47.338;9.196;2023-12-29T00:38:27;2.90;;;2.40;;
41219;SDS011;26951;47.338;9.196;2023-12-29T00:41:11;3.63;;;2.55;;
41219;SDS011;26951;47.338;9.196;2023-12-29T00:43:56;3.65;;;2.67;;
41219;SDS011;26951;47.338;9.196;2023-12-29T00:46:40;4.70;;;3.10;;
41219;SDS011;26951;47.338;9.196;2023-12-29T00:49:24;4.00;;;2.40;;
41219;SDS011;26951;47.338;9.196;2023-12-29T00:52:08;4.18;;;2.72;;
41219;SDS011;26951;47.338;9.196;2023-12-29T00:54:52;2.72;;;2.40;;
41219;SDS011;26951;47.338;9.196;2023-12-29T00:57:36;3.58;;;2.40;;
41219;SDS011;26951;47.338;9.196;2023-12-29T01:00:20;2.53;;;2.15;;
41219;SDS011;26951;47.338;9.196;2023-12-29T01:03:05;3.25;;;2.42;;
41219;SDS011;26951;47.338;9.196;2023-12-29T01:05:48;3.55;;;2.70;;
41219;SDS011;26951;47.338;9.196;2023-12-29T01:08:32;3.15;;;2.70;;
41219;SDS011;26951;47.338;9.196;2023-12-29T01:11:17;3.72;;;2.50;;
41219;SDS011;26951;47.338;9.196;2023-12-29T01:14:01;2.95;;;2.35;;
41219;SDS011;26951;47.338;9.196;2023-12-29T01:16:45;3.40;;;2.53;;
41219;SDS011;26951;47.338;9.196;2023-12-29T01:19:29;2.72;;;2.15;;
41219;SDS011;26951;47.338;9.196;2023-12-29T01:22:13;3.80;;;2.72;;
41219;SDS011;26951;47.338;9.196;2023-12-29T01:25:01;4.30;;;2.50;;
41219;SDS011;26951;47.338;9.196;2023-12-29T01:27:45;4.13;;;2.30;;
41219;SDS011;26951;47.338;9.196;2023-12-29T01:30:29;3.08;;;2.35;;
41219;SDS011;26951;47.338;9.196;2023-12-29T01:33:14;2.72;;;2.03;;
41219;SDS011;26951;47.338;9.196;2023-12-29T01:35:58;4.20;;;2.45;;
41219;SDS011;26951;47.338;9.196;2023-12-29T01:38:42;4.10;;;2.30;;
41219;SDS011;26951;47.338;9.196;2023-12-29T01:41:28;2.85;;;2.42;;
41219;SDS011;26951;47.338;9.196;2023-12-29T01:44:20;3.65;;;2.10;;
41219;SDS011;26951;47.338;9.196;2023-12-29T01:47:10;2.10;;;1.83;;
41219;SDS011;26951;47.338;9.196;2023-12-29T01:49:58;4.05;;;2.25;;
41219;SDS011;26951;47.338;9.196;2023-12-29T01:52:42;4.38;;;2.47;;
41219;SDS011;26951;47.338;9.196;2023-12-29T01:55:28;2.80;;;2.10;;
41219;SDS011;26951;47.338;9.196;2023-12-29T01:58:13;3.00;;;2.53;;
41219;SDS011;26951;47.338;9.196;2023-12-29T02:04:40;2.40;;;1.88;;
41219;SDS011;26951;47.338;9.196;2023-12-29T02:07:25;2.67;;;1.77;;
41219;SDS011;26951;47.338;9.196;2023-12-29T02:10:14;3.95;;;2.08;;
41219;SDS011;26951;47.338;9.196;2023-12-29T02:12:59;2.10;;;1.90;;
41219;SDS011;26951;47.338;9.196;2023-12-29T02:15:43;2.33;;;2.00;;
41219;SDS011;26951;47.338;9.196;2023-12-29T02:18:29;2.55;;;1.77;;
41219;SDS011;26951;47.338;9.196;2023-12-29T02:21:16;2.75;;;1.70;;
41219;SDS011;26951;47.338;9.196;2023-12-29T02:24:01;2.50;;;1.90;;
41219;SDS011;26951;47.338;9.196;2023-12-29T02:26:46;2.47;;;1.95;;
41219;SDS011;26951;47.338;9.196;2023-12-29T02:29:34;1.83;;;1.63;;
41219;SDS011;26951;47.338;9.196;2023-12-29T02:32:20;2.75;;;1.88;;
41219;SDS011;26951;47.338;9.196;2023-12-29T02:37:57;4.10;;;2.30;;
41219;SDS011;26951;47.338;9.196;2023-12-29T02:40:41;2.15;;;1.70;;
41219;SDS011;26951;47.338;9.196;2023-12-29T02:43:25;2.20;;;1.50;;
41219;SDS011;26951;47.338;9.196;2023-12-29T02:46:09;3.17;;;1.60;;
41219;SDS011;26951;47.338;9.196;2023-12-29T02:48:53;4.50;;;2.10;;
41219;SDS011;26951;47.338;9.196;2023-12-29T02:51:37;1.98;;;1.70;;
41219;SDS011;26951;47.338;9.196;2023-12-29T02:54:22;2.17;;;1.75;;
41219;SDS011;26951;47.338;9.196;2023-12-29T02:57:06;3.40;;;2.30;;
41219;SDS011;26951;47.338;9.196;2023-12-29T02:59:50;2.25;;;1.60;;
41219;SDS011;26951;47.338;9.196;2023-12-29T03:02:34;2.35;;;1.70;;
41219;SDS011;26951;47.338;9.196;2023-12-29T03:05:18;2.08;;;1.85;;
41219;SDS011;26951;47.338;9.196;2023-12-29T03:08:02;2.42;;;1.95;;
41219;SDS011;26951;47.338;9.196;2023-12-29T03:10:47;2.67;;;2.25;;
41219;SDS011;26951;47.338;9.196;2023-12-29T03:13:31;2.28;;;2.08;;
41219;SDS011;26951;47.338;9.196;2023-12-29T03:16:15;2.90;;;1.98;;
41219;SDS011;26951;47.338;9.196;2023-12-29T03:18:59;2.58;;;1.98;;
41219;SDS011;26951;47.338;9.196;2023-12-29T03:21:43;4.22;;;1.90;;
41219;SDS011;26951;47.338;9.196;2023-12-29T03:24:28;1.92;;;1.70;;
41219;SDS011;26951;47.338;9.196;2023-12-29T03:27:12;2.72;;;2.20;;
41219;SDS011;26951;47.338;9.196;2023-12-29T03:29:56;2.92;;;2.58;;
41219;SDS011;26951;47.338;9.196;2023-12-29T03:32:41;2.55;;;2.15;;
41219;SDS011;26951;47.338;9.196;2023-12-29T03:35:25;3.50;;;2.20;;
41219;SDS011;26951;47.338;9.196;2023-12-29T03:38:09;2.88;;;2.58;;
41219;SDS011;26951;47.338;9.196;2023-12-29T03:40:53;3.85;;;2.20;;
41219;SDS011;26951;47.338;9.196;2023-12-29T03:43:37;2.85;;;2.40;;
41219;SDS011;26951;47.338;9.196;2023-12-29T03:46:22;4.22;;;1.95;;
41219;SDS011;26951;47.338;9.196;2023-12-29T03:49:06;2.83;;;2.03;;
41219;SDS011;26951;47.338;9.196;2023-12-29T03:51:50;2.40;;;2.20;;
41219;SDS011;26951;47.338;9.196;2023-12-29T03:54:34;2.50;;;2.10;;
41219;SDS011;26951;47.338;9.196;2023-12-29T03:57:19;2.67;;;2.00;;
41219;SDS011;26951;47.338;9.196;2023-12-29T04:00:03;2.47;;;2.00;;
41219;SDS011;26951;47.338;9.196;2023-12-29T04:02:49;3.05;;;2.22;;
41219;SDS011;26951;47.338;9.196;2023-12-29T04:05:33;2.88;;;2.22;;
41219;SDS011;26951;47.338;9.196;2023-12-29T04:08:17;2.88;;;1.92;;
41219;SDS011;26951;47.338;9.196;2023-12-29T04:11:01;2.53;;;1.95;;
41219;SDS011;26951;47.338;9.196;2023-12-29T04:13:46;2.80;;;1.90;;
41219;SDS011;26951;47.338;9.196;2023-12-29T04:16:31;3.30;;;1.85;;
41219;SDS011;26951;47.338;9.196;2023-12-29T04:19:15;2.67;;;1.52;;
41219;SDS011;26951;47.338;9.196;2023-12-29T04:21:59;2.25;;;1.83;;
41219;SDS011;26951;47.338;9.196;2023-12-29T04:24:43;2.75;;;1.90;;
41219;SDS011;26951;47.338;9.196;2023-12-29T04:27:28;2.63;;;2.00;;
41219;SDS011;26951;47.338;9.196;2023-12-29T04:30:12;3.13;;;1.90;;
41219;SDS011;26951;47.338;9.196;2023-12-29T04:32:56;3.80;;;1.90;;
41219;SDS011;26951;47.338;9.196;2023-12-29T04:35:44;3.25;;;2.08;;
41219;SDS011;26951;47.338;9.196;2023-12-29T04:38:28;2.70;;;1.90;;
41219;SDS011;26951;47.338;9.196;2023-12-29T04:41:12;3.00;;;1.88;;
41219;SDS011;26951;47.338;9.196;2023-12-29T04:43:57;2.50;;;1.90;;
41219;SDS011;26951;47.338;9.196;2023-12-29T04:46:41;2.88;;;1.92;;
41219;SDS011;26951;47.338;9.196;2023-12-29T04:49:26;2.95;;;2.15;;
41219;SDS011;26951;47.338;9.196;2023-12-29T04:52:10;3.17;;;2.08;;
41219;SDS011;26951;47.338;9.196;2023-12-29T04:54:54;2.45;;;2.20;;
41219;SDS011;26951;47.338;9.196;2023-12-29T04:57:38;2.75;;;2.22;;
41219;SDS011;26951;47.338;9.196;2023-12-29T05:00:22;3.22;;;2.60;;
41219;SDS011;26951;47.338;9.196;2023-12-29T05:03:07;3.33;;;2.40;;
41219;SDS011;26951;47.338;9.196;2023-12-29T05:05:51;3.65;;;2.58;;
41219;SDS011;26951;47.338;9.196;2023-12-29T05:08:35;4.55;;;2.17;;
41219;SDS011;26951;47.338;9.196;2023-12-29T05:11:19;4.07;;;2.47;;
41219;SDS011;26951;47.338;9.196;2023-12-29T05:14:04;2.95;;;2.40;;
41219;SDS011;26951;47.338;9.196;2023-12-29T05:16:48;3.08;;;2.50;;
41219;SDS011;26951;47.338;9.196;2023-12-29T05:19:32;2.95;;;2.40;;
41219;SDS011;26951;47.338;9.196;2023-12-29T05:22:16;3.53;;;2.83;;
41219;SDS011;26951;47.338;9.196;2023-12-29T05:25:01;3.20;;;2.53;;
41219;SDS011;26951;47.338;9.196;2023-12-29T05:27:46;3.85;;;2.88;;
41219;SDS011;26951;47.338;9.196;2023-12-29T05:30:30;4.30;;;2.67;;
41219;SDS011;26951;47.338;9.196;2023-12-29T05:33:15;3.67;;;2.22;;
41219;SDS011;26951;47.338;9.196;2023-12-29T05:36:05;2.75;;;2.40;;
41219;SDS011;26951;47.338;9.196;2023-12-29T05:38:51;4.05;;;2.53;;
41219;SDS011;26951;47.338;9.196;2023-12-29T05:41:35;2.90;;;2.38;;
41219;SDS011;26951;47.338;9.196;2023-12-29T05:44:20;2.97;;;2.53;;
41219;SDS011;26951;47.338;9.196;2023-12-29T05:47:04;3.63;;;2.75;;
41219;SDS011;26951;47.338;9.196;2023-12-29T05:49:48;3.30;;;2.60;;
41219;SDS011;26951;47.338;9.196;2023-12-29T05:52:33;4.47;;;2.40;;
41219;SDS011;26951;47.338;9.196;2023-12-29T05:55:17;3.58;;;2.47;;
41219;SDS011;26951;47.338;9.196;2023-12-29T05:58:02;3.95;;;2.58;;
41219;SDS011;26951;47.338;9.196;2023-12-29T06:00:47;4.85;;;3.15;;
41219;SDS011;26951;47.338;9.196;2023-12-29T06:03:31;3.03;;;2.70;;
41219;SDS011;26951;47.338;9.196;2023-12-29T06:06:15;4.88;;;3.13;;
41219;SDS011;26951;47.338;9.196;2023-12-29T06:08:59;3.28;;;2.80;;
41219;SDS011;26951;47.338;9.196;2023-12-29T06:11:43;4.97;;;3.33;;
41219;SDS011;26951;47.338;9.196;2023-12-29T06:14:28;4.28;;;2.80;;
41219;SDS011;26951;47.338;9.196;2023-12-29T06:17:12;3.25;;;2.53;;
41219;SDS011;26951;47.338;9.196;2023-12-29T06:19:56;3.78;;;3.10;;
41219;SDS011;26951;47.338;9.196;2023-12-29T06:22:40;3.92;;;2.97;;
41219;SDS011;26951;47.338;9.196;2023-12-29T06:25:24;3.78;;;3.20;;
41219;SDS011;26951;47.338;9.196;2023-12-29T06:28:08;2.97;;;2.70;;
41219;SDS011;26951;47.338;9.196;2023-12-29T06:30:53;3.05;;;2.70;;
41219;SDS011;26951;47.338;9.196;2023-12-29T06:33:43;3.63;;;2.42;;
41219;SDS011;26951;47.338;9.196;2023-12-29T06:36:28;4.20;;;2.78;;
41219;SDS011;26951;47.338;9.196;2023-12-29T06:39:12;4.25;;;2.60;;
41219;SDS011;26951;47.338;9.196;2023-12-29T06:41:56;3.30;;;2.83;;
41219;SDS011;26951;47.338;9.196;2023-12-29T06:44:40;4.32;;;2.72;;
41219;SDS011;26951;47.338;9.196;2023-12-29T06:47:24;3.78;;;3.38;;
41219;SDS011;26951;47.338;9.196;2023-12-29T06:50:08;2.60;;;2.40;;
41219;SDS011;26951;47.338;9.196;2023-12-29T06:52:55;2.80;;;2.20;;
41219;SDS011;26951;47.338;9.196;2023-12-29T06:55:39;2.55;;;2.30;;
41219;SDS011;26951;47.338;9.196;2023-12-29T06:58:24;2.95;;;2.42;;
41219;SDS011;26951;47.338;9.196;2023-12-29T07:01:08;3.20;;;2.40;;
41219;SDS011;26951;47.338;9.196;2023-12-29T07:03:52;3.15;;;2.80;;
41219;SDS011;26951;47.338;9.196;2023-12-29T07:06:36;4.85;;;2.88;;
41219;SDS011;26951;47.338;9.196;2023-12-29T07:09:20;3.58;;;2.83;;
41219;SDS011;26951;47.338;9.196;2023-12-29T07:12:05;4.07;;;3.20;;
41219;SDS011;26951;47.338;9.196;2023-12-29T07:14:49;4.55;;;2.60;;
41219;SDS011;26951;47.338;9.196;2023-12-29T07:17:33;3.05;;;2.42;;
41219;SDS011;26951;47.338;9.196;2023-12-29T07:20:17;3.25;;;2.72;;
41219;SDS011;26951;47.338;9.196;2023-12-29T07:23:01;4.72;;;2.85;;
41219;SDS011;26951;47.338;9.196;2023-12-29T07:25:46;3.35;;;3.00;;
41219;SDS011;26951;47.338;9.196;2023-12-29T07:28:31;3.53;;;2.90;;
41219;SDS011;26951;47.338;9.196;2023-12-29T07:31:15;4.68;;;3.25;;
41219;SDS011;26951;47.338;9.196;2023-12-29T07:33:59;3.00;;;2.65;;
41219;SDS011;26951;47.338;9.196;2023-12-29T07:36:43;3.85;;;3.25;;
41219;SDS011;26951;47.338;9.196;2023-12-29T07:39:27;4.97;;;2.92;;
41219;SDS011;26951;47.338;9.196;2023-12-29T07:42:11;4.32;;;3.08;;
41219;SDS011;26951;47.338;9.196;2023-12-29T07:44:55;4.68;;;2.83;;
41219;SDS011;26951;47.338;9.196;2023-12-29T07:47:39;3.35;;;2.65;;
41219;SDS011;26951;47.338;9.196;2023-12-29T07:50:23;5.30;;;3.20;;
41219;SDS011;26951;47.338;9.196;2023-12-29T07:53:08;3.63;;;3.08;;
41219;SDS011;26951;47.338;9.196;2023-12-29T07:55:52;3.75;;;3.15;;
41219;SDS011;26951;47.338;9.196;2023-12-29T07:58:37;4.80;;;3.20;;
41219;SDS011;26951;47.338;9.196;2023-12-29T08:01:21;5.80;;;3.20;;
41219;SDS011;26951;47.338;9.196;2023-12-29T08:04:05;4.88;;;3.08;;
41219;SDS011;26951;47.338;9.196;2023-12-29T08:06:50;4.28;;;3.08;;
41219;SDS011;26951;47.338;9.196;2023-12-29T08:09:34;4.80;;;3.40;;
41219;SDS011;26951;47.338;9.196;2023-12-29T08:12:18;5.07;;;3.67;;
41219;SDS011;26951;47.338;9.196;2023-12-29T08:15:02;5.13;;;3.20;;
41219;SDS011;26951;47.338;9.196;2023-12-29T08:17:47;6.57;;;3.13;;
41219;SDS011;26951;47.338;9.196;2023-12-29T08:20:31;3.75;;;3.05;;
41219;SDS011;26951;47.338;9.196;2023-12-29T08:23:15;4.85;;;2.90;;
41219;SDS011;26951;47.338;9.196;2023-12-29T08:25:59;4.82;;;3.30;;
41219;SDS011;26951;47.338;9.196;2023-12-29T08:28:46;3.85;;;2.88;;
41219;SDS011;26951;47.338;9.196;2023-12-29T08:31:30;3.90;;;3.28;;
41219;SDS011;26951;47.338;9.196;2023-12-29T08:34:14;2.90;;;2.53;;
41219;SDS011;26951;47.338;9.196;2023-12-29T08:36:59;3.47;;;2.77;;
41219;SDS011;26951;47.338;9.196;2023-12-29T08:39:43;3.85;;;2.67;;
41219;SDS011;26951;47.338;9.196;2023-12-29T08:42:27;3.53;;;2.92;;
41219;SDS011;26951;47.338;9.196;2023-12-29T08:45:12;5.33;;;2.70;;
41219;SDS011;26951;47.338;9.196;2023-12-29T08:47:56;3.60;;;3.08;;
41219;SDS011;26951;47.338;9.196;2023-12-29T08:50:40;4.15;;;2.97;;
41219;SDS011;26951;47.338;9.196;2023-12-29T08:53:24;3.00;;;2.58;;
41219;SDS011;26951;47.338;9.196;2023-12-29T08:56:08;3.35;;;2.17;;
41219;SDS011;26951;47.338;9.196;2023-12-29T08:58:52;2.65;;;2.40;;
41219;SDS011;26951;47.338;9.196;2023-12-29T09:01:36;3.63;;;2.42;;
41219;SDS011;26951;47.338;9.196;2023-12-29T09:04:28;3.15;;;2.22;;
41219;SDS011;26951;47.338;9.196;2023-12-29T09:07:12;3.42;;;2.58;;
41219;SDS011;26951;47.338;9.196;2023-12-29T09:09:56;2.67;;;2.10;;
41219;SDS011;26951;47.338;9.196;2023-12-29T09:12:41;2.70;;;2.10;;
41219;SDS011;26951;47.338;9.196;2023-12-29T09:15:25;2.70;;;2.10;;
41219;SDS011;26951;47.338;9.196;2023-12-29T09:18:09;3.72;;;2.20;;
41219;SDS011;26951;47.338;9.196;2023-12-29T09:20:53;1.90;;;1.80;;
41219;SDS011;26951;47.338;9.196;2023-12-29T09:23:37;1.60;;;1.50;;
41219;SDS011;26951;47.338;9.196;2023-12-29T09:26:22;2.17;;;1.70;;
41219;SDS011;26951;47.338;9.196;2023-12-29T09:29:06;2.63;;;1.67;;
41219;SDS011;26951;47.338;9.196;2023-12-29T09:31:51;2.75;;;1.85;;
41219;SDS011;26951;47.338;9.196;2023-12-29T09:34:35;3.40;;;1.70;;
41219;SDS011;26951;47.338;9.196;2023-12-29T09:37:19;2.30;;;1.45;;
41219;SDS011;26951;47.338;9.196;2023-12-29T09:40:03;1.77;;;1.58;;
41219;SDS011;26951;47.338;9.196;2023-12-29T09:42:48;2.47;;;1.60;;
41219;SDS011;26951;47.338;9.196;2023-12-29T09:45:33;1.92;;;1.30;;
41219;SDS011;26951;47.338;9.196;2023-12-29T09:48:20;2.80;;;1.50;;
41219;SDS011;26951;47.338;9.196;2023-12-29T09:51:10;2.13;;;1.67;;
41219;SDS011;26951;47.338;9.196;2023-12-29T09:53:55;2.42;;;1.73;;
41219;SDS011;26951;47.338;9.196;2023-12-29T09:56:42;2.17;;;1.73;;
41219;SDS011;26951;47.338;9.196;2023-12-29T09:59:27;1.80;;;1.50;;
41219;SDS011;26951;47.338;9.196;2023-12-29T10:02:14;2.33;;;1.80;;
41219;SDS011;26951;47.338;9.196;2023-12-29T10:05:03;4.65;;;1.88;;
41219;SDS011;26951;47.338;9.196;2023-12-29T10:07:48;3.03;;;1.73;;
41219;SDS011;26951;47.338;9.196;2023-12-29T10:13:19;1.50;;;1.40;;
41219;SDS011;26951;47.338;9.196;2023-12-29T10:16:08;2.58;;;1.65;;
41219;SDS011;26951;47.338;9.196;2023-12-29T10:24:50;3.83;;;2.50;;
41219;SDS011;26951;47.338;9.196;2023-12-29T10:27:35;1.52;;;1.33;;
41219;SDS011;26951;47.338;9.196;2023-12-29T10:30:20;1.52;;;1.42;;
41219;SDS011;26951;47.338;9.196;2023-12-29T10:33:05;2.00;;;1.50;;
41219;SDS011;26951;47.338;9.196;2023-12-29T10:35:59;2.53;;;1.90;;
41219;SDS011;26951;47.338;9.196;2023-12-29T10:38:50;1.73;;;1.52;;
41219;SDS011;26951;47.338;9.196;2023-12-29T10:41:50;1.73;;;1.63;;
41219;SDS011;26951;47.338;9.196;2023-12-29T10:44:53;1.75;;;1.65;;
41219;SDS011;26951;47.338;9.196;2023-12-29T10:47:53;1.50;;;1.40;;
41219;SDS011;26951;47.338;9.196;2023-12-29T10:50:42;2.33;;;1.30;;
41219;SDS011;26951;47.338;9.196;2023-12-29T10:53:28;1.38;;;1.20;;
41219;SDS011;26951;47.338;9.196;2023-12-29T10:56:18;1.83;;;1.30;;
41219;SDS011;26951;47.338;9.196;2023-12-29T10:59:05;1.55;;;1.35;;
41219;SDS011;26951;47.338;9.196;2023-12-29T11:01:50;1.73;;;1.35;;
41219;SDS011;26951;47.338;9.196;2023-12-29T11:07:33;3.10;;;1.80;;
41219;SDS011;26951;47.338;9.196;2023-12-29T11:10:26;7.45;;;4.03;;
41219;SDS011;26951;47.338;9.196;2023-12-29T11:13:11;2.47;;;1.70;;
41219;SDS011;26951;47.338;9.196;2023-12-29T11:15:57;4.15;;;2.10;;
41219;SDS011;26951;47.338;9.196;2023-12-29T11:18:41;2.38;;;1.08;;
41219;SDS011;26951;47.338;9.196;2023-12-29T11:21:27;2.03;;;1.35;;
41219;SDS011;26951;47.338;9.196;2023-12-29T11:24:14;1.83;;;1.13;;
41219;SDS011;26951;47.338;9.196;2023-12-29T11:26:58;2.20;;;1.30;;
41219;SDS011;26951;47.338;9.196;2023-12-29T11:29:42;1.50;;;1.30;;
41219;SDS011;26951;47.338;9.196;2023-12-29T11:32:41;1.35;;;1.20;;
41219;SDS011;26951;47.338;9.196;2023-12-29T11:36:13;3.67;;;1.30;;
41219;SDS011;26951;47.338;9.196;2023-12-29T11:38:49;1.70;;;1.38;;
41219;SDS011;26951;47.338;9.196;2023-12-29T11:41:54;1.95;;;1.27;;
41219;SDS011;26951;47.338;9.196;2023-12-29T11:44:45;1.83;;;1.52;;
41219;SDS011;26951;47.338;9.196;2023-12-29T11:47:35;1.60;;;1.30;;
41219;SDS011;26951;47.338;9.196;2023-12-29T11:50:33;1.70;;;1.00;;
41219;SDS011;26951;47.338;9.196;2023-12-29T11:53:30;1.48;;;1.20;;
41219;SDS011;26951;47.338;9.196;2023-12-29T11:56:15;2.17;;;1.88;;
41219;SDS011;26951;47.338;9.196;2023-12-29T11:59:16;1.17;;;1.08;;
41219;SDS011;26951;47.338;9.196;2023-12-29T12:02:04;1.42;;;1.20;;
41219;SDS011;26951;47.338;9.196;2023-12-29T12:04:49;1.65;;;1.55;;
41219;SDS011;26951;47.338;9.196;2023-12-29T12:13:06;2.30;;;1.00;;
41219;SDS011;26951;47.338;9.196;2023-12-29T12:15:53;1.58;;;1.10;;
41219;SDS011;26951;47.338;9.196;2023-12-29T12:18:37;1.40;;;1.30;;
41219;SDS011;26951;47.338;9.196;2023-12-29T12:24:08;1.30;;;1.20;;
41219;SDS011;26951;47.338;9.196;2023-12-29T12:26:52;1.15;;;1.00;;
41219;SDS011;26951;47.338;9.196;2023-12-29T12:29:36;1.20;;;1.10;;
41219;SDS011;26951;47.338;9.196;2023-12-29T12:32:20;0.77;;;0.77;;
41219;SDS011;26951;47.338;9.196;2023-12-29T12:35:12;2.03;;;1.20;;
41219;SDS011;26951;47.338;9.196;2023-12-29T12:40:53;1.23;;;1.08;;
41219;SDS011;26951;47.338;9.196;2023-12-29T12:43:38;2.75;;;1.05;;
41219;SDS011;26951;47.338;9.196;2023-12-29T12:46:28;0.68;;;0.68;;
41219;SDS011;26951;47.338;9.196;2023-12-29T12:49:17;4.45;;;0.90;;
41219;SDS011;26951;47.338;9.196;2023-12-29T12:52:02;1.15;;;1.05;;
41219;SDS011;26951;47.338;9.196;2023-12-29T12:54:47;1.08;;;0.98;;
41219;SDS011;26951;47.338;9.196;2023-12-29T12:57:32;0.95;;;0.80;;
41219;SDS011;26951;47.338;9.196;2023-12-29T13:00:17;1.13;;;0.95;;
41219;SDS011;26951;47.338;9.196;2023-12-29T13:03:01;0.80;;;0.70;;
41219;SDS011;26951;47.338;9.196;2023-12-29T13:05:45;1.70;;;1.20;;
41219;SDS011;26951;47.338;9.196;2023-12-29T13:08:30;0.88;;;0.77;;
41219;SDS011;26951;47.338;9.196;2023-12-29T13:11:18;0.75;;;0.70;;
41219;SDS011;26951;47.338;9.196;2023-12-29T13:14:05;0.80;;;0.80;;
41219;SDS011;26951;47.338;9.196;2023-12-29T13:19:35;0.80;;;0.80;;
41219;SDS011;26951;47.338;9.196;2023-12-29T13:22:19;1.00;;;0.90;;
41219;SDS011;26951;47.338;9.196;2023-12-29T13:25:05;1.10;;;1.00;;
41219;SDS011;26951;47.338;9.196;2023-12-29T13:27:50;1.42;;;0.90;;
41219;SDS011;26951;47.338;9.196;2023-12-29T13:30:37;1.90;;;0.95;;
41219;SDS011;26951;47.338;9.196;2023-12-29T13:39:26;1.33;;;1.00;;
41219;SDS011;26951;47.338;9.196;2023-12-29T13:42:19;1.58;;;1.02;;
41219;SDS011;26951;47.338;9.196;2023-12-29T13:45:05;1.17;;;1.00;;
41219;SDS011;26951;47.338;9.196;2023-12-29T13:47:52;0.85;;;0.80;;
41219;SDS011;26951;47.338;9.196;2023-12-29T13:53:23;1.70;;;0.73;;
41219;SDS011;26951;47.338;9.196;2023-12-29T13:56:08;1.00;;;0.60;;
41219;SDS011;26951;47.338;9.196;2023-12-29T13:58:53;1.02;;;0.80;;
41219;SDS011;26951;47.338;9.196;2023-12-29T14:01:37;0.70;;;0.70;;
41219;SDS011;26951;47.338;9.196;2023-12-29T14:04:22;1.05;;;0.93;;
41219;SDS011;26951;47.338;9.196;2023-12-29T14:07:06;1.35;;;0.82;;
41219;SDS011;26951;47.338;9.196;2023-12-29T14:09:53;0.70;;;0.70;;
41219;SDS011;26951;47.338;9.196;2023-12-29T14:12:38;0.75;;;0.75;;
41219;SDS011;26951;47.338;9.196;2023-12-29T14:15:23;0.70;;;0.70;;
41219;SDS011;26951;47.338;9.196;2023-12-29T14:21:32;1.55;;;1.08;;
41219;SDS011;26951;47.338;9.196;2023-12-29T14:24:17;0.82;;;0.75;;
41219;SDS011;26951;47.338;9.196;2023-12-29T14:27:02;0.73;;;0.73;;
41219;SDS011;26951;47.338;9.196;2023-12-29T14:29:46;1.23;;;1.10;;
41219;SDS011;26951;47.338;9.196;2023-12-29T14:32:30;1.23;;;0.90;;
41219;SDS011;26951;47.338;9.196;2023-12-29T14:35:15;2.80;;;1.00;;
41219;SDS011;26951;47.338;9.196;2023-12-29T14:37:59;1.55;;;1.20;;
41219;SDS011;26951;47.338;9.196;2023-12-29T14:40:44;1.38;;;1.27;;
41219;SDS011;26951;47.338;9.196;2023-12-29T14:43:29;1.77;;;1.42;;
41219;SDS011;26951;47.338;9.196;2023-12-29T14:46:13;2.40;;;1.55;;
41219;SDS011;26951;47.338;9.196;2023-12-29T14:48:58;2.37;;;1.50;;
41219;SDS011;26951;47.338;9.196;2023-12-29T14:51:42;2.42;;;1.30;;
41219;SDS011;26951;47.338;9.196;2023-12-29T14:54:26;3.10;;;1.33;;
41219;SDS011;26951;47.338;9.196;2023-12-29T14:57:10;1.70;;;1.08;;
41219;SDS011;26951;47.338;9.196;2023-12-29T14:59:55;0.95;;;0.80;;
41219;SDS011;26951;47.338;9.196;2023-12-29T15:02:39;2.15;;;1.95;;
41219;SDS011;26951;47.338;9.196;2023-12-29T15:05:23;0.88;;;0.88;;
41219;SDS011;26951;47.338;9.196;2023-12-29T15:08:07;1.75;;;1.30;;
41219;SDS011;26951;47.338;9.196;2023-12-29T15:10:51;1.13;;;1.02;;
41219;SDS011;26951;47.338;9.196;2023-12-29T15:13:35;1.48;;;1.38;;
41219;SDS011;26951;47.338;9.196;2023-12-29T15:16:22;1.10;;;1.00;;
41219;SDS011;26951;47.338;9.196;2023-12-29T15:19:05;1.38;;;0.88;;
41219;SDS011;26951;47.338;9.196;2023-12-29T15:21:52;1.13;;;0.85;;
41219;SDS011;26951;47.338;9.196;2023-12-29T15:27:22;0.77;;;0.77;;
41219;SDS011;26951;47.338;9.196;2023-12-29T15:30:07;1.85;;;1.00;;
41219;SDS011;26951;47.338;9.196;2023-12-29T15:32:55;2.75;;;1.63;;
41219;SDS011;26951;47.338;9.196;2023-12-29T15:35:42;1.85;;;1.70;;
41219;SDS011;26951;47.338;9.196;2023-12-29T15:38:26;1.27;;;1.08;;
41219;SDS011;26951;47.338;9.196;2023-12-29T15:41:12;0.90;;;0.90;;
41219;SDS011;26951;47.338;9.196;2023-12-29T15:43:56;1.42;;;0.90;;
41219;SDS011;26951;47.338;9.196;2023-12-29T15:46:40;0.80;;;0.80;;
41219;SDS011;26951;47.338;9.196;2023-12-29T15:49:24;1.13;;;1.00;;
41219;SDS011;26951;47.338;9.196;2023-12-29T15:52:08;0.60;;;0.60;;
41219;SDS011;26951;47.338;9.196;2023-12-29T15:54:52;1.42;;;1.30;;
41219;SDS011;26951;47.338;9.196;2023-12-29T15:57:36;1.67;;;1.58;;
41219;SDS011;26951;47.338;9.196;2023-12-29T16:00:20;1.33;;;1.15;;
41219;SDS011;26951;47.338;9.196;2023-12-29T16:03:06;1.13;;;0.90;;
41219;SDS011;26951;47.338;9.196;2023-12-29T16:05:49;0.82;;;0.70;;
41219;SDS011;26951;47.338;9.196;2023-12-29T16:08:33;3.92;;;3.28;;
41219;SDS011;26951;47.338;9.196;2023-12-29T16:11:21;2.35;;;1.80;;
41219;SDS011;26951;47.338;9.196;2023-12-29T16:17:14;1.20;;;1.08;;
41219;SDS011;26951;47.338;9.196;2023-12-29T16:19:58;2.30;;;1.45;;
41219;SDS011;26951;47.338;9.196;2023-12-29T16:22:43;2.05;;;1.40;;
41219;SDS011;26951;47.338;9.196;2023-12-29T16:25:27;2.92;;;1.98;;
41219;SDS011;26951;47.338;9.196;2023-12-29T16:28:11;1.73;;;1.17;;
41219;SDS011;26951;47.338;9.196;2023-12-29T16:30:55;1.83;;;1.23;;
41219;SDS011;26951;47.338;9.196;2023-12-29T16:33:40;1.73;;;1.30;;
41219;SDS011;26951;47.338;9.196;2023-12-29T16:36:24;2.05;;;1.58;;
41219;SDS011;26951;47.338;9.196;2023-12-29T16:39:08;3.33;;;1.58;;
41219;SDS011;26951;47.338;9.196;2023-12-29T16:41:53;1.73;;;1.35;;
41219;SDS011;26951;47.338;9.196;2023-12-29T16:44:38;1.10;;;1.00;;
41219;SDS011;26951;47.338;9.196;2023-12-29T16:47:23;1.17;;;0.98;;
41219;SDS011;26951;47.338;9.196;2023-12-29T16:50:07;2.25;;;1.10;;
41219;SDS011;26951;47.338;9.196;2023-12-29T16:52:52;1.40;;;1.30;;
41219;SDS011;26951;47.338;9.196;2023-12-29T16:55:36;1.98;;;1.25;;
41219;SDS011;26951;47.338;9.196;2023-12-29T16:58:20;1.17;;;1.00;;
41219;SDS011;26951;47.338;9.196;2023-12-29T17:01:12;1.42;;;1.15;;
41219;SDS011;26951;47.338;9.196;2023-12-29T17:03:56;1.90;;;1.13;;
41219;SDS011;26951;47.338;9.196;2023-12-29T17:06:40;1.92;;;1.50;;
41219;SDS011;26951;47.338;9.196;2023-12-29T17:09:24;1.95;;;1.45;;
41219;SDS011;26951;47.338;9.196;2023-12-29T17:12:08;1.98;;;1.42;;
41219;SDS011;26951;47.338;9.196;2023-12-29T17:14:53;1.52;;;1.30;;
41219;SDS011;26951;47.338;9.196;2023-12-29T17:17:38;1.33;;;1.23;;
41219;SDS011;26951;47.338;9.196;2023-12-29T17:20:22;1.40;;;1.20;;
41219;SDS011;26951;47.338;9.196;2023-12-29T17:23:07;1.67;;;1.40;;
41219;SDS011;26951;47.338;9.196;2023-12-29T17:25:51;1.65;;;1.13;;